createdAt,value
2019-02-22T00:01:57.575Z,26.47
2019-02-22T00:04:59.827Z,23.27
2019-02-22T00:08:02.108Z,20.50
2019-02-22T00:11:04.337Z,19.73
2019-02-22T00:14:06.574Z,20.67
2019-02-22T00:17:08.828Z,22.27
2019-02-22T00:20:11.108Z,22.93
2019-02-22T00:23:13.327Z,20.60
2019-02-22T00:26:15.559Z,23.83
2019-02-22T00:29:17.806Z,25.30
2019-02-22T00:36:25.111Z,24.47
2019-02-22T00:39:27.300Z,27.80
2019-02-22T00:42:29.555Z,29.40
2019-02-22T00:45:31.785Z,33.53
2019-02-22T00:48:34.251Z,30.43
2019-02-22T00:51:36.503Z,34.87
2019-02-22T00:54:38.719Z,37.37
2019-02-22T00:57:40.957Z,34.93
2019-02-22T01:00:43.181Z,40.20
2019-02-22T01:03:45.444Z,38.20
2019-02-22T01:06:47.755Z,27.23
2019-02-22T01:09:50.020Z,28.70
2019-02-22T01:12:52.291Z,29.10
2019-02-22T01:15:54.536Z,33.33
2019-02-22T01:18:56.743Z,35.40
2019-02-22T01:21:59.001Z,32.43
2019-02-22T01:25:01.228Z,33.03
2019-02-22T01:28:03.516Z,29.23
2019-02-22T01:31:05.768Z,32.43
2019-02-22T01:34:08.023Z,30.53
2019-02-22T01:37:10.242Z,33.13
2019-02-22T01:40:12.486Z,31.80
2019-02-22T01:43:14.715Z,34.10
2019-02-22T01:46:16.932Z,31.37
2019-02-22T01:49:19.169Z,35.27
2019-02-22T01:52:21.397Z,31.17
2019-02-22T01:55:23.692Z,32.70
2019-02-22T01:58:25.884Z,36.03
2019-02-22T02:01:28.112Z,27.07
2019-02-22T02:04:30.368Z,31.77
2019-02-22T02:07:32.583Z,28.17
2019-02-22T02:10:34.819Z,27.30
2019-02-22T02:13:37.031Z,29.70
2019-02-22T02:16:39.267Z,27.03
2019-02-22T02:19:41.491Z,28.13
2019-02-22T02:22:43.696Z,30.83
2019-02-22T02:25:45.936Z,28.60
2019-02-22T02:28:48.139Z,27.83
2019-02-22T02:31:50.365Z,32.57
2019-02-22T02:34:52.631Z,28.53
2019-02-22T02:37:54.867Z,32.37
2019-02-22T02:41:08.056Z,31.20
2019-02-22T02:43:59.357Z,39.83
2019-02-22T02:47:01.608Z,32.57
2019-02-22T02:50:04.095Z,42.90
2019-02-22T02:53:06.319Z,38.13
2019-02-22T02:56:08.548Z,35.27
2019-02-22T02:59:10.807Z,37.33
2019-02-22T03:02:17.631Z,41.70
2019-02-22T03:05:19.955Z,44.37
2019-02-22T03:08:23.573Z,40.30
2019-02-22T03:11:25.840Z,42.27
2019-02-22T03:14:28.086Z,47.67
2019-02-22T03:17:30.322Z,50.23
2019-02-22T03:20:32.561Z,45.00
2019-02-22T03:23:34.769Z,45.13
2019-02-22T03:26:37.017Z,49.20
2019-02-22T03:29:39.239Z,41.73
2019-02-22T03:32:41.466Z,41.13
2019-02-22T03:35:43.668Z,38.77
2019-02-22T03:38:46.004Z,43.97
2019-02-22T03:41:48.298Z,43.90
2019-02-22T03:44:50.568Z,46.73
2019-02-22T03:47:52.952Z,59.43
2019-02-22T03:50:55.208Z,45.37
2019-02-22T03:54:00.553Z,42.47
2019-02-22T03:57:02.851Z,36.53
2019-02-22T04:00:05.711Z,45.10
2019-02-22T04:03:08.030Z,40.03
2019-02-22T04:06:10.357Z,58.67
2019-02-22T04:09:12.619Z,43.77
2019-02-22T04:12:15.001Z,42.47
2019-02-22T04:15:17.316Z,48.83
2019-02-22T04:18:19.586Z,53.73
2019-02-22T04:21:21.855Z,47.47
2019-02-22T04:24:24.115Z,53.63
2019-02-22T04:27:26.377Z,46.63
2019-02-22T04:30:28.649Z,47.23
2019-02-22T04:33:30.868Z,41.07
2019-02-22T04:36:33.163Z,43.97
2019-02-22T04:39:35.432Z,45.00
2019-02-22T04:42:37.662Z,50.60
2019-02-22T04:45:39.957Z,48.00
2019-02-22T04:48:42.200Z,56.13
2019-02-22T04:51:44.403Z,42.77
2019-02-22T04:54:46.616Z,49.93
2019-02-22T04:57:48.855Z,50.80
2019-02-22T05:00:51.076Z,49.20
2019-02-22T05:03:53.303Z,40.97
2019-02-22T05:06:55.694Z,48.37
2019-02-22T05:09:57.849Z,60.10
2019-02-22T05:13:00.055Z,56.97
2019-02-22T05:16:02.303Z,60.00
2019-02-22T05:19:04.502Z,45.63
2019-02-22T05:22:06.728Z,56.47
2019-02-22T05:25:08.979Z,63.23
2019-02-22T05:28:11.207Z,59.60
2019-02-22T05:31:13.415Z,68.67
2019-02-22T05:34:15.667Z,62.97
2019-02-22T05:37:17.926Z,61.27
2019-02-22T05:40:20.292Z,60.67
2019-02-22T05:43:22.539Z,57.70
2019-02-22T05:46:24.833Z,53.10
2019-02-22T05:49:27.077Z,63.17
2019-02-22T05:52:29.363Z,60.07
2019-02-22T05:55:31.591Z,65.77
2019-02-22T05:58:33.797Z,62.80
2019-02-22T06:01:36.121Z,60.63
2019-02-22T06:04:38.343Z,62.53
2019-02-22T06:07:40.611Z,59.90
2019-02-22T06:10:42.838Z,57.47
2019-02-22T06:13:45.159Z,68.90
2019-02-22T06:16:47.491Z,61.17
2019-02-22T06:19:49.814Z,64.90
2019-02-22T06:22:52.024Z,65.10
2019-02-22T06:25:54.275Z,67.40
2019-02-22T06:28:56.551Z,67.57
2019-02-22T06:31:58.830Z,70.97
2019-02-22T06:35:01.196Z,68.27
2019-02-22T06:38:03.409Z,82.57
2019-02-22T06:41:05.633Z,74.93
2019-02-22T06:44:08.079Z,65.37
2019-02-22T06:47:10.313Z,72.07
2019-02-22T06:50:12.579Z,73.10
2019-02-22T06:53:14.880Z,73.73
2019-02-22T06:56:17.038Z,77.80
2019-02-22T06:59:19.259Z,79.07
2019-02-22T07:02:21.519Z,71.07
2019-02-22T07:05:23.728Z,93.03
2019-02-22T07:08:26.002Z,73.17
2019-02-22T07:11:33.179Z,74.10
2019-02-22T07:14:35.404Z,75.43
2019-02-22T07:17:37.632Z,73.33
2019-02-22T07:20:39.864Z,70.57
2019-02-22T07:23:42.137Z,71.23
2019-02-22T07:26:44.400Z,79.43
2019-02-22T07:29:46.628Z,68.53
2019-02-22T07:32:48.891Z,66.77
2019-02-22T07:35:51.104Z,74.40
2019-02-22T07:38:53.342Z,61.77
2019-02-22T07:41:55.576Z,69.50
2019-02-22T07:44:57.793Z,59.27
2019-02-22T07:48:00.025Z,68.20
2019-02-22T07:51:02.435Z,69.70
2019-02-22T07:54:04.764Z,68.10
2019-02-22T07:57:06.999Z,73.53
2019-02-22T08:00:11.618Z,74.47
2019-02-22T08:03:13.901Z,75.47
2019-02-22T08:06:17.577Z,78.77
2019-02-22T08:09:20.325Z,80.60
2019-02-22T08:12:22.641Z,82.47
2019-02-22T08:15:24.899Z,81.73
2019-02-22T08:18:27.151Z,81.77
2019-02-22T08:21:29.434Z,77.17
2019-02-22T08:24:31.702Z,84.53
2019-02-22T08:27:33.912Z,76.80
2019-02-22T08:30:36.190Z,83.50
2019-02-22T08:33:38.409Z,80.77
2019-02-22T08:36:40.628Z,80.90
2019-02-22T08:39:42.840Z,79.87
2019-02-22T08:42:45.073Z,79.60
2019-02-22T08:45:47.311Z,74.20
2019-02-22T08:48:49.567Z,74.03
2019-02-22T08:51:51.929Z,78.73
2019-02-22T08:54:54.256Z,81.07
2019-02-22T08:57:56.484Z,72.17
2019-02-22T09:00:58.747Z,84.40
2019-02-22T09:04:01.040Z,77.93
2019-02-22T09:07:03.310Z,93.10
2019-02-22T09:10:05.855Z,113.30
2019-02-22T09:13:08.128Z,108.07
2019-02-22T09:16:10.706Z,87.57
2019-02-22T09:19:12.975Z,98.23
2019-02-22T09:22:22.817Z,97.00
2019-02-22T09:25:17.536Z,90.33
2019-02-22T09:28:20.006Z,114.57
2019-02-22T09:31:22.486Z,101.17
2019-02-22T09:34:24.777Z,104.13
2019-02-22T09:37:27.103Z,87.50
2019-02-22T09:40:29.419Z,89.87
2019-02-22T09:43:31.669Z,88.73
2019-02-22T09:46:33.887Z,84.63
2019-02-22T09:49:36.196Z,95.33
2019-02-22T09:52:38.468Z,82.97
2019-02-22T09:55:40.724Z,74.93
2019-02-22T09:58:42.990Z,88.07
2019-02-22T10:01:45.365Z,88.10
2019-02-22T10:04:54.893Z,86.20
2019-02-22T10:07:49.925Z,79.47
2019-02-22T10:10:52.249Z,77.70
2019-02-22T10:14:06.017Z,86.60
2019-02-22T10:16:56.895Z,82.97
2019-02-22T10:20:01.505Z,81.27
2019-02-22T10:23:01.391Z,84.17
2019-02-22T10:26:03.682Z,78.23
2019-02-22T10:29:05.955Z,69.67
2019-02-22T10:32:08.199Z,75.70
2019-02-22T10:35:10.589Z,74.70
2019-02-22T10:38:12.847Z,67.70
2019-02-22T10:41:15.132Z,69.83
2019-02-22T10:44:18.074Z,69.90
2019-02-22T10:47:19.700Z,67.23
2019-02-22T10:50:22.028Z,67.27
2019-02-22T10:53:24.338Z,58.70
2019-02-22T10:56:28.319Z,61.70
2019-02-22T10:59:29.525Z,60.57
2019-02-22T11:02:31.779Z,66.03
2019-02-22T11:05:34.116Z,66.93
2019-02-22T11:08:36.366Z,59.27
2019-02-22T11:11:38.608Z,53.97
2019-02-22T11:14:40.905Z,56.87
2019-02-22T11:17:43.173Z,57.87
2019-02-22T11:20:45.450Z,59.33
2019-02-22T11:23:47.743Z,65.17
2019-02-22T11:26:49.994Z,56.67
2019-02-22T11:29:52.254Z,54.27
2019-02-22T11:32:54.491Z,56.87
2019-02-22T11:35:56.777Z,47.77
2019-02-22T11:38:58.988Z,48.63
2019-02-22T11:42:01.329Z,42.27
2019-02-22T11:45:03.773Z,48.93
2019-02-22T11:48:09.173Z,44.07
2019-02-22T11:51:08.425Z,46.23
2019-02-22T11:54:10.696Z,43.17
2019-02-22T11:57:13.060Z,43.53
2019-02-22T12:00:16.065Z,47.30
2019-02-22T12:03:24.634Z,44.50
2019-02-22T12:06:20.676Z,40.63
2019-02-22T12:09:22.977Z,41.37
2019-02-22T12:12:25.342Z,45.40
2019-02-22T12:15:27.559Z,42.57
2019-02-22T12:18:29.876Z,41.63
2019-02-22T12:21:32.146Z,39.80
2019-02-22T12:24:34.391Z,43.20
2019-02-22T12:27:36.657Z,39.07
2019-02-22T12:30:38.943Z,40.13
2019-02-22T12:33:41.300Z,34.27
2019-02-22T12:36:43.611Z,36.60
2019-02-22T12:39:46.506Z,35.83
2019-02-22T12:42:49.699Z,32.50
2019-02-22T12:45:52.048Z,35.27
2019-02-22T12:48:54.977Z,28.17
2019-02-22T12:51:57.237Z,39.03
2019-02-22T12:54:59.722Z,38.93
2019-02-22T12:58:02.061Z,32.77
2019-02-22T13:01:04.394Z,31.70
2019-02-22T13:04:06.769Z,33.17
2019-02-22T13:07:09.058Z,33.13
2019-02-22T13:10:11.335Z,33.57
2019-02-22T13:13:13.631Z,32.90
2019-02-22T13:16:15.918Z,31.97
2019-02-22T13:19:18.312Z,36.07
2019-02-22T13:22:20.732Z,33.50
2019-02-22T13:25:23.000Z,33.43
2019-02-22T13:28:25.304Z,31.50
2019-02-22T13:31:30.357Z,33.80
2019-02-22T13:34:29.915Z,31.07
2019-02-22T13:37:32.212Z,31.30
2019-02-22T13:40:34.441Z,28.40
2019-02-22T13:43:36.707Z,29.17
2019-02-22T13:46:39.036Z,29.87
2019-02-22T13:49:41.363Z,32.20
2019-02-22T13:52:43.630Z,29.90
2019-02-22T13:55:45.972Z,30.83
2019-02-22T13:58:48.191Z,25.70
2019-02-22T14:01:50.451Z,27.57
2019-02-22T14:04:52.723Z,25.70
2019-02-22T14:07:55.087Z,27.17
2019-02-22T14:10:57.421Z,27.23
2019-02-22T14:13:59.710Z,24.77
2019-02-22T14:17:02.093Z,27.77
2019-02-22T14:20:04.585Z,26.27
2019-02-22T14:23:06.973Z,27.23
2019-02-22T14:26:09.287Z,28.40
2019-02-22T14:29:11.532Z,28.93
2019-02-22T14:32:13.819Z,26.03
2019-02-22T14:35:16.164Z,27.43
2019-02-22T14:38:18.537Z,26.57
2019-02-22T14:41:20.837Z,25.60
2019-02-22T14:44:23.151Z,23.37
2019-02-22T14:47:25.448Z,26.07
2019-02-22T14:50:28.040Z,24.97
2019-02-22T14:53:30.341Z,25.03
2019-02-22T14:56:32.766Z,23.83
2019-02-22T14:59:35.240Z,23.30
2019-02-22T15:02:37.621Z,22.93
2019-02-22T15:05:39.912Z,22.17
2019-02-22T15:08:42.243Z,23.73
2019-02-22T15:11:44.507Z,22.40
2019-02-22T15:14:47.066Z,22.13
2019-02-22T15:17:53.084Z,20.87
2019-02-22T15:20:55.417Z,19.90
2019-02-22T15:23:57.687Z,24.50
2019-02-22T15:26:59.951Z,24.30
2019-02-22T15:30:02.513Z,24.60
2019-02-22T15:33:05.567Z,22.80
2019-02-22T15:36:07.653Z,21.23
2019-02-22T15:39:10.015Z,21.33
2019-02-22T15:42:12.370Z,23.47
2019-02-22T15:45:14.780Z,21.27
2019-02-22T15:48:17.148Z,22.43
2019-02-22T15:51:19.572Z,24.67
2019-02-22T15:54:21.881Z,24.13
2019-02-22T15:57:25.125Z,22.60
2019-02-22T16:00:27.655Z,22.97
2019-02-22T16:03:34.571Z,21.77
2019-02-22T16:06:36.951Z,24.47
2019-02-22T16:09:39.328Z,17.90
2019-02-22T16:12:41.596Z,12.90
2019-02-22T16:15:43.903Z,10.03
2019-02-22T16:18:46.205Z,10.23
2019-02-22T16:21:48.644Z,11.70
2019-02-22T16:24:50.911Z,9.37
2019-02-22T16:27:53.291Z,10.77
2019-02-22T16:30:55.652Z,10.20
2019-02-22T16:33:57.970Z,8.13
2019-02-22T16:37:00.277Z,7.57
2019-02-22T16:40:02.582Z,8.93
2019-02-22T16:43:04.867Z,9.97
2019-02-22T16:46:07.147Z,9.73
2019-02-22T16:49:09.379Z,9.27
2019-02-22T16:52:11.664Z,10.90
2019-02-22T16:55:14.297Z,12.43
2019-02-22T16:58:16.681Z,10.57
2019-02-22T17:01:18.956Z,10.33
2019-02-22T17:04:21.327Z,11.03
2019-02-22T17:07:23.685Z,12.07
2019-02-22T17:10:25.927Z,12.57
2019-02-22T17:13:28.185Z,12.70
2019-02-22T17:16:30.435Z,9.80
2019-02-22T17:19:32.683Z,12.30
2019-02-22T17:22:35.071Z,14.73
2019-02-22T17:25:37.340Z,10.87
2019-02-22T17:28:39.671Z,13.00
2019-02-22T17:31:41.996Z,14.90
2019-02-22T17:34:45.645Z,13.27
2019-02-22T17:37:46.617Z,16.07
2019-02-22T17:40:48.864Z,12.40
2019-02-22T17:43:51.108Z,16.90
2019-02-22T17:46:57.695Z,13.70
2019-02-22T17:49:55.735Z,14.53
2019-02-22T17:52:57.989Z,14.27
2019-02-22T17:56:00.463Z,14.57
2019-02-22T17:59:02.798Z,13.53
2019-02-22T18:02:05.156Z,16.53
2019-02-22T18:05:07.535Z,17.90
2019-02-22T18:08:09.808Z,19.93
2019-02-22T18:11:12.161Z,15.07
2019-02-22T18:14:14.457Z,19.10
2019-02-22T18:17:16.878Z,18.10
2019-02-22T18:20:19.232Z,19.80
2019-02-22T18:23:21.580Z,20.13
2019-02-22T18:26:23.908Z,20.60
2019-02-22T18:29:35.042Z,19.20
2019-02-22T18:32:28.474Z,17.97
2019-02-22T18:35:31.370Z,19.37
2019-02-22T18:38:33.868Z,18.73
2019-02-22T18:41:36.252Z,18.33
2019-02-22T18:44:38.538Z,20.43
2019-02-22T18:47:40.817Z,17.37
2019-02-22T18:50:43.195Z,15.27
2019-02-22T18:53:45.539Z,17.13
2019-02-22T18:56:47.803Z,14.17
2019-02-22T18:59:50.111Z,13.33
2019-02-22T19:02:52.377Z,14.87
2019-02-22T19:05:54.598Z,16.63
2019-02-22T19:08:56.885Z,12.87
2019-02-22T19:11:59.134Z,14.70
2019-02-22T19:15:01.466Z,13.17
2019-02-22T19:18:03.799Z,12.60
2019-02-22T19:21:06.079Z,13.37
2019-02-22T19:24:08.345Z,15.97
2019-02-22T19:27:11.207Z,13.10
2019-02-22T19:30:14.600Z,14.63
2019-02-22T19:33:16.871Z,11.30
2019-02-22T19:36:19.127Z,12.33
2019-02-22T19:39:21.427Z,12.87
2019-02-22T19:42:23.689Z,11.30
2019-02-22T19:45:25.980Z,8.83
2019-02-22T19:48:28.203Z,9.20
2019-02-22T19:51:30.489Z,9.27
2019-02-22T19:54:32.752Z,8.07
2019-02-22T19:57:34.956Z,8.40
2019-02-22T20:00:37.217Z,6.10
2019-02-22T20:03:39.490Z,8.63
2019-02-22T20:06:41.735Z,7.60
2019-02-22T20:09:44.027Z,10.97
2019-02-22T20:12:46.305Z,11.10
2019-02-22T20:15:48.591Z,11.37
2019-02-22T20:19:05.568Z,10.40
2019-02-22T20:22:07.835Z,12.00
2019-02-22T20:25:10.181Z,13.67
2019-02-22T20:28:12.451Z,13.37
2019-02-22T20:31:20.173Z,12.33
2019-02-22T20:34:17.011Z,11.13
2019-02-22T20:37:19.327Z,12.00
2019-02-22T20:40:21.677Z,13.97
2019-02-22T20:43:24.102Z,12.77
2019-02-22T20:46:27.003Z,12.63
2019-02-22T20:49:29.298Z,15.33
2019-02-22T20:52:31.516Z,15.43
2019-02-22T20:55:33.771Z,15.40
2019-02-22T20:58:36.037Z,13.57
2019-02-22T21:01:38.287Z,15.87
2019-02-22T21:04:40.570Z,14.50
2019-02-22T21:07:42.906Z,15.20
2019-02-22T21:10:45.207Z,14.03
2019-02-22T21:13:47.471Z,14.53
2019-02-22T21:16:49.747Z,14.70
2019-02-22T21:19:52.020Z,16.57
2019-02-22T21:22:54.269Z,14.43
2019-02-22T21:25:56.487Z,14.13
2019-02-22T21:28:58.751Z,14.37
2019-02-22T21:32:01.034Z,17.97
2019-02-22T21:35:03.371Z,16.43
2019-02-22T21:38:05.591Z,16.23
2019-02-22T21:41:07.836Z,15.70
2019-02-22T21:44:10.083Z,14.27
2019-02-22T21:47:12.305Z,19.23
2019-02-22T21:50:14.610Z,15.43
2019-02-22T21:53:16.869Z,15.97
2019-02-22T21:56:19.102Z,14.37
2019-02-22T21:59:21.484Z,14.00
2019-02-22T22:02:23.781Z,15.47
2019-02-22T22:05:26.093Z,18.23
2019-02-22T22:08:28.343Z,13.83
2019-02-22T22:11:30.615Z,13.73
2019-02-22T22:14:32.859Z,15.17
2019-02-22T22:17:35.102Z,12.97
2019-02-22T22:20:37.362Z,14.10
2019-02-22T22:23:39.592Z,16.67
2019-02-22T22:26:41.871Z,16.60
2019-02-22T22:29:44.103Z,15.43
2019-02-22T22:32:46.352Z,15.90
2019-02-22T22:35:48.625Z,16.30
2019-02-22T22:38:50.887Z,16.63
2019-02-22T22:41:53.091Z,15.87
2019-02-22T22:44:55.320Z,16.57
2019-02-22T22:47:57.595Z,16.87
2019-02-22T22:50:59.834Z,16.13
2019-02-22T22:54:02.250Z,17.70
2019-02-22T22:57:04.492Z,16.90
2019-02-22T23:00:14.599Z,14.67
2019-02-22T23:03:16.859Z,16.57
2019-02-22T23:06:19.369Z,17.73
2019-02-22T23:09:21.791Z,16.00
2019-02-22T23:12:24.173Z,18.17
2019-02-22T23:15:26.469Z,15.80
2019-02-22T23:18:28.731Z,17.67
2019-02-22T23:21:31.028Z,18.13
2019-02-22T23:24:33.288Z,16.73
2019-02-22T23:27:35.616Z,14.97
2019-02-22T23:30:37.894Z,17.87
2019-02-22T23:33:40.163Z,12.23
2019-02-22T23:36:42.448Z,15.20
2019-02-22T23:39:44.746Z,15.83
2019-02-22T23:42:47.005Z,18.33
2019-02-22T23:45:49.262Z,16.60
2019-02-22T23:48:51.499Z,15.37
2019-02-22T23:51:53.734Z,15.63
2019-02-22T23:54:56.011Z,17.47
2019-02-22T23:57:58.243Z,16.80
